KMMH

Details ICAO KMMH (MMH)
Name Mammoth Yosemite
Region United States
Timezone America/Los_Angeles (UTC-7.0)
Plans Departing 65
Arriving 113
Stats Elevation 7,128 ft / 2,173 m (AMSL)
Location 37.624100° -118.839000°
Runways 1
Magnetic Variation 12.690° E
Sunrise 2019-05-19 12:44:15 UTC / 2019-05-19 05:44:15 Local
Sunset 2019-05-20 03:02:14 UTC / 2019-05-19 20:02:14 Local
Advertisement - Login to hide

Runways

ID Width Length Bearing (true/mag) Surface Threshold Overrun Markings Lighting
09 98 ft / 30 m 6,987 ft / 2,130 m 109.02° / 96.33° ASPHALT 0 ft / 0 m 2,999 ft / 914 m APP EDGE THRESHOLD
27 98 ft / 30 m 6,987 ft / 2,130 m 289.03° / 276.34° ASPHALT 0 ft / 0 m 0 ft / 0 m APP EDGE THRESHOLD REIL-OMNI

Map

Weather


0- 5 10 15 20 25 30 35+ Temperature / °C

Clouds and Precipitation
Forecast for 2019-05-20 00:00 UTC. Updated 6 hours ago

Ground ~20,000 ft ~40,000 ft Winds

METAR

KMMH 200255Z AUTO 29014G17KT 10SM SCT085 00/M04 A2976 RMK AO2 T00001043

TAF

TAF KMMH 192326Z 2000/2024 26014G24KT P6SM VCSH SCT040 BKN100 FM200600 26010G17KT P6SM SCT060 BKN110 FM202000 27014G24KT P6SM SCT070 BKN180

Frequencies

Unicom 122.80 MHz CTAF/UNICOM
Recorded 118.05 MHz AWOS 3
Warning: Do not use this data for real-world aviation or navigation. No guarantee of current accuracy is given.